Time;durP1;ratioP1;P1;durP2;ratioP2;P2;SDS_P1;SDS_P2;PMS_P1;PMS_P2;Temp;Humidity;BMP_temperature;BMP_pressure;BME280_temperature;BME280_humidity;BME280_pressure;Samples;Min_cycle;Max_cycle;Signal;HPM_P1;HPM_P2
2023/10/26 00:00:59;;;;;;;16.67;15.07;;;;;;;12.91;100.00;99482.88;5232303;28;20135;-82
2023/10/26 00:03:30;;;;;;;25.83;14.90;;;;;;;12.98;100.00;99507.63;5235354;28;20109;-82
2023/10/26 00:06:02;;;;;;;18.67;15.80;;;;;;;13.26;100.00;99549.78;5234231;28;20454;-79
2023/10/26 00:08:33;;;;;;;15.73;14.33;;;;;;;13.16;100.00;99543.72;5233157;28;20165;-80
2023/10/26 00:11:05;;;;;;;17.63;15.93;;;;;;;13.05;100.00;99536.81;5233170;28;20033;-80
2023/10/26 00:13:36;;;;;;;17.10;15.60;;;;;;;13.23;100.00;99554.50;5233232;28;20366;-81
2023/10/26 00:16:07;;;;;;;16.53;15.03;;;;;;;13.37;100.00;99561.13;5233983;28;20087;-81
2023/10/26 00:18:39;;;;;;;16.47;14.97;;;;;;;13.17;100.00;99553.25;5233141;28;20029;-82
2023/10/26 00:21:10;;;;;;;18.00;16.20;;;;;;;13.15;100.00;99529.72;5233434;28;20461;-82
2023/10/26 00:23:41;;;;;;;17.20;15.20;;;;;;;13.13;100.00;99525.56;5249124;28;20124;-82
2023/10/26 00:26:13;;;;;;;17.07;15.47;;;;;;;12.80;100.00;99510.97;5229904;28;20409;-82
2023/10/26 00:28:44;;;;;;;16.77;15.07;;;;;;;13.03;100.00;99517.72;5211812;28;20026;-82
2023/10/26 00:31:16;;;;;;;16.70;15.10;;;;;;;13.15;100.00;99547.31;5213325;28;20026;-82
2023/10/26 00:33:47;;;;;;;16.70;14.93;;;;;;;13.04;100.00;99535.97;5214094;28;20030;-81
2023/10/26 00:36:18;;;;;;;16.03;14.43;;;;;;;13.11;100.00;99540.69;5213843;28;20045;-81
2023/10/26 00:38:50;;;;;;;17.33;15.63;;;;;;;13.10;100.00;99542.47;5215643;28;20423;-82
2023/10/26 00:41:21;;;;;;;17.53;15.23;;;;;;;13.26;100.00;99578.72;5233660;28;20489;-80
2023/10/26 00:43:52;;;;;;;16.70;15.00;;;;;;;13.01;100.00;99557.28;5232782;28;20029;-82
2023/10/26 00:46:25;;;;;;;17.53;15.30;;;;;;;12.98;100.00;99546.22;5233822;28;20064;-82
2023/10/26 00:48:57;;;;;;;17.50;15.67;;;;;;;13.02;100.00;99563.38;5249761;28;20025;-82
2023/10/26 00:51:28;;;;;;;15.50;13.80;;;;;;;13.03;100.00;99592.16;5249310;28;20039;-83
2023/10/26 00:54:00;;;;;;;16.70;15.20;;;;;;;12.96;100.00;99554.25;5234147;28;20053;-83
2023/10/26 00:56:33;;;;;;;19.77;15.23;;;;;;;12.86;100.00;99558.69;5233733;28;20033;-80
2023/10/26 00:59:05;;;;;;;16.63;14.93;;;;;;;12.83;100.00;99555.34;5232421;28;20037;-82
2023/10/26 01:01:37;;;;;;;16.27;14.43;;;;;;;12.83;100.00;99563.22;5232832;28;20017;-82
2023/10/26 01:04:09;;;;;;;16.70;15.10;;;;;;;13.07;100.00;99580.38;5233489;28;20025;-82
2023/10/26 01:06:41;;;;;;;15.47;13.83;;;;;;;12.99;100.00;99553.97;5219661;28;20735;-81
2023/10/26 01:09:14;;;;;;;15.70;14.27;;;;;;;13.02;100.00;99558.94;5214588;28;20030;-81
2023/10/26 01:11:46;;;;;;;16.27;13.97;;;;;;;13.01;100.00;99544.16;5228633;28;20022;-82
2023/10/26 01:14:18;;;;;;;15.30;13.07;;;;;;;12.98;100.00;99569.88;5213062;28;20065;-81
2023/10/26 01:16:50;;;;;;;14.43;13.10;;;;;;;13.01;100.00;99573.06;5212545;28;20026;-82
2023/10/26 01:19:36;;;;;;;16.03;14.27;;;;;;;13.44;100.00;99591.09;5228769;28;20055;-82
2023/10/26 01:22:08;;;;;;;14.57;13.13;;;;;;;12.93;100.00;99580.81;5234436;28;20461;-82
2023/10/26 01:24:40;;;;;;;15.30;13.87;;;;;;;12.83;100.00;99546.63;5232236;28;20026;-82
2023/10/26 01:27:11;;;;;;;13.80;12.47;;;;;;;12.78;100.00;99552.31;5234595;28;20025;-82
2023/10/26 01:29:43;;;;;;;14.93;13.20;;;;;;;12.85;100.00;99572.75;5232547;28;20111;-82
2023/10/26 01:32:14;;;;;;;14.27;12.87;;;;;;;12.98;100.00;99583.84;5233724;28;20072;-81
2023/10/26 01:34:46;;;;;;;15.03;13.73;;;;;;;12.83;100.00;99549.25;5232628;28;20112;-82
2023/10/26 01:37:17;;;;;;;14.43;13.00;;;;;;;13.01;100.00;99575.69;5233850;28;20025;-83
2023/10/26 01:39:48;;;;;;;14.87;13.33;;;;;;;12.86;100.00;99558.69;5232832;28;20033;-83
2023/10/26 01:42:20;;;;;;;13.50;12.20;;;;;;;13.07;100.00;99606.66;5233591;28;20469;-81
2023/10/26 01:44:51;;;;;;;13.03;11.83;;;;;;;12.94;100.00;99582.44;5232141;28;20098;-82
2023/10/26 01:47:22;;;;;;;14.47;13.07;;;;;;;13.07;100.00;99587.44;5248230;28;20036;-81
2023/10/26 01:49:54;;;;;;;14.73;13.43;;;;;;;13.14;100.00;99592.97;5232077;28;20033;-81
2023/10/26 01:52:25;;;;;;;14.13;12.73;;;;;;;13.06;100.00;99591.84;5247901;28;20066;-81
2023/10/26 01:54:57;;;;;;;14.20;12.63;;;;;;;12.83;100.00;99586.88;5238469;28;20030;-81
2023/10/26 01:57:28;;;;;;;14.03;12.67;;;;;;;13.09;100.00;99603.88;5211325;28;20029;-81
2023/10/26 01:59:59;;;;;;;15.03;12.50;;;;;;;12.75;100.00;99583.28;5210392;28;20030;-81
2023/10/26 02:02:31;;;;;;;13.77;12.37;;;;;;;12.74;100.00;99598.19;5212199;28;20029;-81
2023/10/26 02:05:03;;;;;;;15.73;13.70;;;;;;;12.79;100.00;99576.78;5211812;28;20554;-81
2023/10/26 02:07:34;;;;;;;15.37;13.97;;;;;;;12.79;100.00;99564.47;5211191;28;20033;-81
2023/10/26 02:10:06;;;;;;;13.53;12.33;;;;;;;12.67;100.00;99576.09;5228177;28;20033;-82
2023/10/26 02:12:37;;;;;;;14.17;12.87;;;;;;;12.71;100.00;99587.97;5210999;28;20060;-81
2023/10/26 02:15:09;;;;;;;14.07;12.57;;;;;;;12.62;100.00;99583.56;5219493;28;20045;-81
2023/10/26 02:17:40;;;;;;;15.27;13.50;;;;;;;12.57;100.00;99576.91;5232696;28;20021;-81
2023/10/26 02:20:12;;;;;;;14.57;13.07;;;;;;;12.44;100.00;99557.97;5231290;28;20021;-81
2023/10/26 02:22:43;;;;;;;14.87;13.27;;;;;;;12.53;100.00;99565.00;5230343;28;20225;-81
2023/10/26 02:25:15;;;;;;;13.70;12.40;;;;;;;12.68;100.00;99583.00;5233795;28;20026;-82
2023/10/26 02:27:46;;;;;;;14.87;13.37;;;;;;;12.42;100.00;99573.84;5232233;28;20029;-82
2023/10/26 02:30:18;;;;;;;15.17;13.67;;;;;;;12.44;100.00;99557.97;5232149;28;20075;-82
2023/10/26 02:32:49;;;;;;;13.37;12.17;;;;;;;12.43;100.00;99569.41;5234084;28;20029;-82
2023/10/26 02:35:20;;;;;;;15.97;14.47;;;;;;;12.19;100.00;99532.09;5244185;28;20025;-82
2023/10/26 02:37:52;;;;;;;14.33;12.93;;;;;;;12.16;100.00;99553.34;5241987;28;20022;-82
2023/10/26 02:40:23;;;;;;;15.13;13.63;;;;;;;12.41;100.00;99572.19;5243397;28;20030;-82
2023/10/26 02:42:55;;;;;;;15.67;14.07;;;;;;;12.39;100.00;99552.28;5240147;28;20026;-82
2023/10/26 02:45:26;;;;;;;14.87;13.37;;;;;;;12.29;100.00;99557.50;5239347;28;20711;-82
2023/10/26 02:47:58;;;;;;;16.27;12.60;;;;;;;11.93;100.00;99537.78;5233440;28;20079;-83
2023/10/26 02:50:30;;;;;;;14.77;13.37;;;;;;;12.04;100.00;99565.72;5223257;28;20397;-83
2023/10/26 02:53:01;;;;;;;14.27;12.47;;;;;;;11.83;100.00;99548.22;5212287;28;20030;-82
2023/10/26 02:55:33;;;;;;;14.13;12.13;;;;;;;11.83;100.00;99558.72;5210397;28;20026;-83
2023/10/26 02:58:04;;;;;;;14.23;12.70;;;;;;;11.79;100.00;99567.00;5211911;28;20026;-81
2023/10/26 03:00:35;;;;;;;14.03;12.70;;;;;;;11.99;100.00;99562.63;5210007;28;20032;-81
2023/10/26 03:03:07;;;;;;;14.77;13.47;;;;;;;12.05;100.00;99577.88;5218294;28;20065;-81
2023/10/26 03:05:38;;;;;;;14.30;12.67;;;;;;;11.90;100.00;99555.59;5231883;28;20076;-79
2023/10/26 03:08:11;;;;;;;13.53;12.23;;;;;;;11.91;100.00;99559.84;5234944;28;20033;-80
2023/10/26 03:10:43;;;;;;;14.03;12.50;;;;;;;12.02;100.00;99574.69;5249534;28;20452;-80
2023/10/26 03:13:14;;;;;;;13.40;12.20;;;;;;;11.96;100.00;99574.25;5235656;28;20029;-81
2023/10/26 03:15:45;;;;;;;14.40;13.03;;;;;;;12.18;100.00;99588.16;5234622;28;20045;-81
2023/10/26 03:18:17;;;;;;;14.73;13.20;;;;;;;12.09;100.00;99566.19;5250450;28;20103;-81
2023/10/26 03:20:48;;;;;;;13.87;12.57;;;;;;;12.08;100.00;99576.75;5250762;28;20025;-81
2023/10/26 03:23:19;;;;;;;13.80;12.27;;;;;;;11.86;100.00;99576.84;5235562;28;20072;-81
2023/10/26 03:25:51;;;;;;;15.20;12.27;;;;;;;11.86;100.00;99584.72;5233200;28;20025;-80
2023/10/26 03:28:22;;;;;;;14.57;13.07;;;;;;;11.66;100.00;99556.72;5250175;28;20381;-80
2023/10/26 03:30:53;;;;;;;14.23;12.80;;;;;;;11.71;100.00;99578.16;5235240;28;20040;-81
2023/10/26 03:33:24;;;;;;;13.37;11.97;;;;;;;11.72;100.00;99585.88;5233513;28;20030;-81
2023/10/26 03:35:56;;;;;;;14.30;12.90;;;;;;;11.59;100.00;99557.25;5234674;28;20048;-80
2023/10/26 03:38:27;;;;;;;14.50;12.97;;;;;;;11.68;100.00;99581.00;5234303;28;20029;-79
2023/10/26 03:40:59;;;;;;;14.57;13.17;;;;;;;11.40;100.00;99554.53;5233446;28;20026;-81
2023/10/26 03:43:30;;;;;;;14.93;13.33;;;;;;;11.43;100.00;99562.94;5232520;28;20867;-81
2023/10/26 03:46:01;;;;;;;17.47;12.67;;;;;;;11.50;100.00;99576.38;5232203;28;20063;-83
2023/10/26 03:48:35;;;;;;;15.00;13.50;;;;;;;11.70;100.00;99568.59;5233720;28;20106;-79
2023/10/26 03:51:06;;;;;;;13.67;11.87;;;;;;;11.53;100.00;99573.50;5241951;28;20025;-80
2023/10/26 03:53:37;;;;;;;15.60;13.70;;;;;;;11.38;100.00;99550.22;5229250;28;20030;-81
2023/10/26 03:56:09;;;;;;;13.97;12.33;;;;;;;11.43;100.00;99533.28;5233845;28;20036;-80
2023/10/26 03:58:40;;;;;;;15.17;13.67;;;;;;;11.65;100.00;99552.44;5233182;28;20029;-80
2023/10/26 04:01:11;;;;;;;14.73;13.23;;;;;;;11.44;100.00;99548.88;5249000;28;20381;-81
2023/10/26 04:03:43;;;;;;;14.40;13.00;;;;;;;11.28;100.00;99536.25;5234229;28;20042;-80
2023/10/26 04:06:14;;;;;;;14.23;12.73;;;;;;;11.43;100.00;99546.41;5224243;28;20033;-80
2023/10/26 04:08:45;;;;;;;15.63;13.27;;;;;;;11.37;100.00;99545.13;5213415;28;20030;-81
2023/10/26 04:11:17;;;;;;;15.20;13.67;;;;;;;11.55;100.00;99532.25;5247524;28;20030;-81
2023/10/26 04:13:48;;;;;;;21.40;14.70;;;;;;;11.46;100.00;99533.03;5247699;28;20128;-81
2023/10/26 04:16:21;;;;;;;23.83;13.80;;;;;;;11.56;100.00;99535.69;5233554;28;20108;-80
2023/10/26 04:18:53;;;;;;;69.40;16.73;;;;;;;11.58;100.00;99549.50;5233384;28;20348;-80
2023/10/26 04:21:24;;;;;;;76.27;18.10;;;;;;;11.49;100.00;99525.72;5233645;28;20037;-80
2023/10/26 04:23:55;;;;;;;83.30;18.67;;;;;;;11.52;100.00;99523.81;5233675;28;20192;-80
2023/10/26 04:26:27;;;;;;;108.03;19.10;;;;;;;11.55;100.00;99537.50;5234421;28;20037;-81
2023/10/26 04:28:58;;;;;;;180.70;21.00;;;;;;;11.38;100.00;99528.41;5233439;28;20029;-81
2023/10/26 04:31:29;;;;;;;108.73;18.43;;;;;;;11.77;100.00;99561.03;5234767;28;20066;-81
2023/10/26 04:34:01;;;;;;;130.20;18.43;;;;;;;11.72;100.00;99548.31;5233764;28;20520;-81
2023/10/26 04:36:32;;;;;;;125.30;18.57;;;;;;;11.63;100.00;99552.56;5233507;28;20033;-81
2023/10/26 04:39:04;;;;;;;306.07;21.77;;;;;;;11.36;100.00;99543.47;5234384;28;20126;-81
2023/10/26 04:41:36;;;;;;;116.20;17.17;;;;;;;11.55;100.00;99537.50;5231788;28;20068;-81
2023/10/26 04:44:07;;;;;;;129.07;15.97;;;;;;;11.61;100.00;99554.47;5233324;28;20026;-81
2023/10/26 04:46:39;;;;;;;141.50;16.13;;;;;;;11.61;100.00;99550.06;5234000;28;20082;-82
2023/10/26 04:49:10;;;;;;;71.83;15.60;;;;;;;11.53;100.00;99536.78;5233800;28;20060;-80
2023/10/26 04:51:41;;;;;;;101.93;16.47;;;;;;;11.54;100.00;99533.19;5233838;28;20026;-81
2023/10/26 04:54:13;;;;;;;82.83;16.83;;;;;;;11.57;100.00;99532.94;5234224;28;20717;-82
2023/10/26 04:56:44;;;;;;;113.10;17.73;;;;;;;11.60;100.00;99551.06;5233526;28;20091;-81
2023/10/26 04:59:15;;;;;;;190.03;19.03;;;;;;;11.41;100.00;99558.81;5232854;28;20847;-81
2023/10/26 05:01:46;;;;;;;131.17;17.03;;;;;;;11.50;100.00;99537.88;5233118;28;20057;-82
2023/10/26 05:04:18;;;;;;;158.73;16.23;;;;;;;11.37;100.00;99532.84;5232380;28;20128;-82
2023/10/26 05:06:52;;;;;;;188.30;18.37;;;;;;;11.52;100.00;99552.66;5233672;28;20037;-82
2023/10/26 05:09:39;;;;;;;132.63;17.33;;;;;;;11.59;100.00;99530.22;5233791;28;20061;-80
2023/10/26 05:12:10;;;;;;;158.23;17.13;;;;;;;11.45;100.00;99523.50;5234796;28;20561;-81
2023/10/26 05:14:41;;;;;;;116.37;14.73;;;;;;;11.39;100.00;99537.97;5232425;28;20050;-82
2023/10/26 05:17:13;;;;;;;137.13;15.67;;;;;;;11.27;100.00;99508.38;5234398;28;20021;-82
2023/10/26 05:19:44;;;;;;;125.27;16.13;;;;;;;11.32;100.00;99508.81;5249767;28;20033;-83
2023/10/26 05:22:17;;;;;;;111.20;15.50;;;;;;;11.22;100.00;99502.69;5234046;28;20025;-82
2023/10/26 05:24:48;;;;;;;110.77;15.23;;;;;;;11.35;100.00;99524.28;5232810;28;20721;-83
2023/10/26 05:27:20;;;;;;;96.30;16.67;;;;;;;11.43;100.00;99525.44;5234507;28;20021;-83
2023/10/26 05:29:52;;;;;;;90.17;15.33;;;;;;;11.23;100.00;99514.81;5232623;28;20029;-84
2023/10/26 05:32:23;;;;;;;153.17;18.73;;;;;;;11.29;100.00;99498.59;5232581;28;20037;-83
2023/10/26 05:34:55;;;;;;;120.70;17.40;;;;;;;11.46;100.00;99505.03;5247348;28;20362;-79
2023/10/26 05:37:26;;;;;;;129.77;17.43;;;;;;;11.58;100.00;99529.38;5232279;28;20057;-80
2023/10/26 05:39:57;;;;;;;187.77;18.37;;;;;;;11.46;100.00;99514.69;5231530;28;20025;-80
2023/10/26 05:42:29;;;;;;;192.93;18.73;;;;;;;11.50;100.00;99530.00;5231875;28;20349;-81
2023/10/26 05:45:00;;;;;;;93.53;17.80;;;;;;;11.57;100.00;99522.44;5247140;28;20025;-81
2023/10/26 05:47:32;;;;;;;63.73;15.33;;;;;;;11.54;100.00;99520.09;5232270;28;20033;-80
2023/10/26 05:50:04;;;;;;;112.10;18.10;;;;;;;11.59;100.00;99538.88;5232718;28;20039;-81
2023/10/26 05:52:36;;;;;;;141.53;17.10;;;;;;;11.22;100.00;99500.06;5232704;28;20369;-82
2023/10/26 05:55:07;;;;;;;69.40;15.67;;;;;;;11.47;100.00;99505.84;5231654;28;20028;-83
2023/10/26 05:57:39;;;;;;;52.57;15.53;;;;;;;11.60;100.00;99522.22;5233234;28;20048;-81
2023/10/26 06:00:11;;;;;;;75.17;15.60;;;;;;;11.37;100.00;99493.53;5247421;28;20116;-82
2023/10/26 06:02:45;;;;;;;71.13;14.40;;;;;;;11.32;100.00;99485.22;5247930;28;20064;-82
2023/10/26 06:05:16;;;;;;;56.38;14.25;;;;;;;11.18;100.00;99465.44;5233464;28;20112;-83
2023/10/26 06:07:47;;;;;;;42.30;13.37;;;;;;;11.33;100.00;99483.41;5231597;28;20171;-82
2023/10/26 06:10:19;;;;;;;44.60;13.57;;;;;;;11.30;100.00;99481.91;5233883;28;20030;-83
2023/10/26 06:12:50;;;;;;;104.93;14.43;;;;;;;11.01;100.00;99478.16;5218575;28;20030;-83
2023/10/26 06:15:22;;;;;;;105.33;14.17;;;;;;;10.96;100.00;99487.38;5228015;28;20140;-83
2023/10/26 06:17:54;;;;;;;108.00;14.10;;;;;;;10.86;100.00;99480.28;5211437;28;20053;-82
2023/10/26 06:20:27;;;;;;;72.70;13.93;;;;;;;10.92;100.00;99489.41;5213700;28;20029;-82
2023/10/26 06:22:59;;;;;;;72.77;13.67;;;;;;;10.78;100.00;99477.47;5228143;28;20030;-83
2023/10/26 06:25:35;;;;;;;105.27;15.13;;;;;;;11.05;100.00;99480.53;5213467;28;20488;-82
2023/10/26 06:28:06;;;;;;;81.10;15.43;;;;;;;10.97;100.00;99483.78;5220386;28;20030;-82
2023/10/26 06:30:37;;;;;;;57.83;14.30;;;;;;;11.02;100.00;99486.84;5230900;28;20480;-81
2023/10/26 06:33:10;;;;;;;74.87;14.87;;;;;;;11.12;100.00;99492.13;5248732;28;20028;-82
2023/10/26 06:35:41;;;;;;;57.37;15.27;;;;;;;11.26;100.00;99519.81;5232531;28;20397;-82
2023/10/26 06:38:13;;;;;;;97.13;16.20;;;;;;;10.85;100.00;99499.56;5233065;28;20037;-82
2023/10/26 06:40:45;;;;;;;40.10;15.63;;;;;;;11.10;100.00;99499.31;5234627;28;20044;-84
2023/10/26 06:43:19;;;;;;;75.07;15.37;;;;;;;11.33;100.00;99512.25;5236407;28;20079;-82
2023/10/26 06:45:53;;;;;;;48.05;15.35;;;;;;;11.28;100.00;99482.97;5210773;28;20040;-82
2023/10/26 06:48:24;;;;;;;171.93;18.33;;;;;;;10.92;100.00;99491.19;5224746;28;20029;-83
2023/10/26 06:51:03;;;;;;;34.97;14.47;;;;;;;11.18;100.00;99480.31;5241260;28;20372;-82
2023/10/26 06:53:35;;;;;;;40.83;14.80;;;;;;;11.05;100.00;99465.63;5224942;28;20361;-83
2023/10/26 06:56:11;;;;;;;130.07;16.97;;;;;;;11.08;100.00;99507.28;5222818;28;20021;-83
2023/10/26 06:58:43;;;;;;;110.50;15.80;;;;;;;11.07;100.00;99517.91;5237196;28;20037;-83
2023/10/26 07:01:14;;;;;;;52.07;15.47;;;;;;;10.99;100.00;99497.59;5224540;28;20037;-82
2023/10/26 07:03:48;;;;;;;63.47;14.87;;;;;;;11.11;100.00;99495.72;5224565;28;20037;-83
2023/10/26 07:06:19;;;;;;;70.25;15.30;;;;;;;10.94;100.00;99484.03;5225011;28;20457;-82
2023/10/26 07:08:51;;;;;;;78.40;16.07;;;;;;;10.96;100.00;99466.41;5224108;28;20056;-84
2023/10/26 07:11:23;;;;;;;174.10;16.07;;;;;;;10.77;100.00;99465.31;5241060;28;20048;-84
2023/10/26 07:13:54;;;;;;;77.53;14.67;;;;;;;11.04;100.00;99473.63;5240964;28;21239;-82
2023/10/26 07:16:25;;;;;;;128.83;16.47;;;;;;;11.06;100.00;99498.75;5236001;28;20428;-83
2023/10/26 07:18:56;;;;;;;114.23;17.17;;;;;;;11.15;100.00;99515.50;5256734;28;20032;-83
2023/10/26 07:21:28;;;;;;;155.60;16.77;;;;;;;10.96;100.00;99490.00;5238737;28;20030;-84
2023/10/26 07:24:00;;;;;;;192.37;17.20;;;;;;;10.84;100.00;99487.41;5249466;28;20067;-83
2023/10/26 07:26:32;;;;;;;171.13;16.20;;;;;;;10.71;100.00;99492.03;5233190;28;20025;-82
2023/10/26 07:29:04;;;;;;;97.57;13.80;;;;;;;10.88;100.00;99501.09;5239891;28;20040;-83
2023/10/26 07:31:35;;;;;;;55.30;13.63;;;;;;;11.09;100.00;99503.72;5254061;28;20021;-82
2023/10/26 07:34:07;;;;;;;60.97;13.83;;;;;;;11.10;100.00;99500.13;5235212;28;20037;-81
2023/10/26 07:36:38;;;;;;;67.47;14.00;;;;;;;11.18;100.00;99496.03;5216487;28;20052;-82
2023/10/26 07:39:09;;;;;;;54.57;13.93;;;;;;;11.22;100.00;99507.94;5228060;28;20087;-82
2023/10/26 07:41:42;;;;;;;78.70;14.30;;;;;;;11.23;100.00;99499.94;5234130;28;20692;-82
2023/10/26 07:44:14;;;;;;;81.97;14.20;;;;;;;11.18;100.00;99511.75;5243052;28;20037;-82
2023/10/26 07:46:45;;;;;;;39.97;13.90;;;;;;;11.17;100.00;99510.13;5252698;28;20350;-83
2023/10/26 07:49:16;;;;;;;35.80;13.50;;;;;;;11.24;100.00;99500.78;5236246;28;20025;-81
2023/10/26 07:51:49;;;;;;;26.03;12.93;;;;;;;11.28;100.00;99501.31;5251849;28;20037;-81
2023/10/26 07:54:25;;;;;;;61.53;14.13;;;;;;;11.42;100.00;99529.00;5236094;28;20075;-82
2023/10/26 07:56:57;;;;;;;63.80;14.47;;;;;;;11.26;100.00;99517.19;5234866;28;20053;-83
2023/10/26 07:59:30;;;;;;;83.93;15.33;;;;;;;11.21;100.00;99535.94;5235360;28;20057;-83
2023/10/26 08:02:01;;;;;;;66.87;15.83;;;;;;;10.96;100.00;99497.84;5235143;28;20029;-83
2023/10/26 08:04:33;;;;;;;129.17;17.60;;;;;;;10.83;100.00;99532.06;5235199;28;20029;-83
2023/10/26 08:07:04;;;;;;;98.60;17.40;;;;;;;10.91;100.00;99532.28;5236201;28;20044;-81
2023/10/26 08:09:35;;;;;;;74.63;17.00;;;;;;;11.17;100.00;99549.44;5235027;28;20037;-81
2023/10/26 08:12:07;;;;;;;41.67;17.20;;;;;;;11.21;100.00;99538.53;5235751;28;20029;-81
2023/10/26 08:14:38;;;;;;;81.40;17.67;;;;;;;11.19;100.00;99537.84;5234061;28;20057;-81
2023/10/26 08:17:10;;;;;;;87.20;18.87;;;;;;;11.21;100.00;99540.31;5233398;28;20535;-82
2023/10/26 08:19:41;;;;;;;47.53;17.47;;;;;;;11.23;100.00;99546.28;5234109;28;20132;-81
2023/10/26 08:22:12;;;;;;;41.03;17.53;;;;;;;11.34;100.00;99558.50;5234254;28;20121;-81
2023/10/26 08:24:44;;;;;;;45.77;17.37;;;;;;;11.41;100.00;99537.84;5234158;28;20069;-82
2023/10/26 08:27:15;;;;;;;35.83;17.00;;;;;;;11.71;100.00;99544.06;5234666;28;20029;-81
2023/10/26 08:29:46;;;;;;;36.30;19.53;;;;;;;11.79;100.00;99551.25;5234179;28;20032;-81
2023/10/26 08:32:18;;;;;;;31.57;18.23;;;;;;;11.83;100.00;99547.41;5249437;28;20017;-81
2023/10/26 08:34:50;;;;;;;27.37;19.47;;;;;;;11.45;100.00;99515.66;5249593;28;20032;-81
2023/10/26 08:37:21;;;;;;;26.37;18.67;;;;;;;11.71;100.00;99528.31;5234133;28;20087;-81
2023/10/26 08:39:53;;;;;;;24.67;19.00;;;;;;;11.77;100.00;99535.66;5257828;28;20096;-81
2023/10/26 08:42:24;;;;;;;21.87;19.43;;;;;;;11.92;100.00;99551.03;5233312;28;20385;-81
2023/10/26 08:44:56;;;;;;;28.50;20.97;;;;;;;12.03;100.00;99544.84;5233907;28;20032;-80
2023/10/26 08:47:29;;;;;;;26.30;20.60;;;;;;;11.95;100.00;99533.25;5233994;28;20156;-81
2023/10/26 08:50:02;;;;;;;34.73;23.53;;;;;;;11.69;100.00;99530.25;5234399;28;20063;-81
2023/10/26 08:52:33;;;;;;;38.13;23.30;;;;;;;11.80;100.00;99552.94;5232900;28;20083;-82
2023/10/26 08:55:05;;;;;;;31.23;23.57;;;;;;;12.08;100.00;99548.72;5233999;28;20049;-82
2023/10/26 08:58:06;;;;;;;27.10;22.60;;;;;;;12.48;100.00;99556.72;5232648;28;20049;-82
2023/10/26 09:00:41;;;;;;;32.27;23.63;;;;;;;11.92;100.00;99522.19;5228073;28;20099;-82
2023/10/26 09:03:14;;;;;;;25.60;21.37;;;;;;;11.99;100.00;99531.16;5227487;28;20026;-82
2023/10/26 09:05:55;;;;;;;26.40;22.23;;;;;;;12.08;100.00;99526.91;5223894;28;20639;-82
2023/10/26 09:08:30;;;;;;;25.13;21.93;;;;;;;12.13;100.00;99544.91;5241901;28;20517;-82
2023/10/26 09:11:20;;;;;;;24.67;21.17;;;;;;;12.32;100.00;99533.63;5231675;28;20039;-82
2023/10/26 09:13:52;;;;;;;26.57;22.60;;;;;;;12.12;100.00;99525.69;5230921;28;20049;-83
2023/10/26 09:16:35;;;;;;;26.60;21.87;;;;;;;12.51;100.00;99535.44;5256037;28;20451;-82
2023/10/26 09:19:07;;;;;;;25.23;22.60;;;;;;;12.28;100.00;99516.47;5233112;28;20033;-83
2023/10/26 09:21:48;;;;;;;25.40;21.57;;;;;;;12.58;100.00;99517.34;5229578;28;20043;-84
2023/10/26 09:24:24;;;;;;;26.60;21.40;;;;;;;12.19;100.00;99512.88;5248787;28;20055;-83
2023/10/26 09:26:59;;;;;;;26.63;22.90;;;;;;;11.91;100.00;99475.91;5232193;28;20024;-84
2023/10/26 09:29:40;;;;;;;26.80;23.07;;;;;;;12.21;100.00;99497.81;5233746;28;20134;-83
2023/10/26 09:32:12;;;;;;;26.03;22.13;;;;;;;12.08;100.00;99496.25;5233561;28;20096;-83
2023/10/26 09:34:45;;;;;;;30.63;24.77;;;;;;;12.14;100.00;99513.28;5256384;28;20105;-83
2023/10/26 09:37:17;;;;;;;26.13;21.53;;;;;;;12.23;100.00;99514.28;5249171;28;20021;-85
2023/10/26 09:39:49;;;;;;;27.93;22.77;;;;;;;12.27;100.00;99501.69;5247711;28;20036;-82
2023/10/26 09:42:21;;;;;;;24.33;21.77;;;;;;;12.64;100.00;99523.81;5228627;28;20030;-84
2023/10/26 09:44:54;;;;;;;25.23;21.63;;;;;;;12.48;100.00;99485.81;5232224;28;20381;-83
2023/10/26 09:47:26;;;;;;;25.30;22.65;;;;;;;12.44;100.00;99481.81;5222772;28;20030;-84
2023/10/26 09:50:00;;;;;;;25.83;23.13;;;;;;;12.60;100.00;99480.44;5212949;28;20033;-85
2023/10/26 09:52:35;;;;;;;24.88;22.15;;;;;;;12.70;100.00;99481.25;5231719;28;20017;-84
2023/10/26 09:55:08;;;;;;;24.88;21.90;;;;;;;12.53;100.00;99480.16;5215930;28;20030;-81
2023/10/26 09:57:46;;;;;;;27.40;22.70;;;;;;;12.60;100.00;99480.44;5214659;28;20025;-81
2023/10/26 10:00:17;;;;;;;24.43;21.73;;;;;;;12.51;100.00;99501.31;5228523;28;20311;-81
2023/10/26 10:03:12;;;;;;;27.23;22.13;;;;;;;12.86;100.00;99506.13;5241379;28;20021;-81
2023/10/26 10:05:45;;;;;;;24.47;20.63;;;;;;;12.53;100.00;99520.34;5237530;28;20096;-81
2023/10/26 10:08:54;;;;;;;23.30;20.00;;;;;;;12.78;100.00;99526.03;5246307;28;20148;-81
2023/10/26 10:11:25;;;;;;;24.67;19.93;;;;;;;12.51;100.00;99524.09;5232166;28;20029;-82
2023/10/26 10:13:57;;;;;;;21.63;19.10;;;;;;;12.30;100.00;99486.50;5246109;28;20091;-81
2023/10/26 10:16:34;;;;;;;20.63;18.43;;;;;;;12.79;100.00;99505.84;5233806;28;20026;-81
2023/10/26 10:19:18;;;;;;;22.10;19.70;;;;;;;12.83;100.00;99502.81;5222914;28;20080;-81
2023/10/26 10:21:51;;;;;;;23.17;20.67;;;;;;;12.56;100.00;99501.72;5232657;28;20052;-80
2023/10/26 10:24:49;;;;;;;21.90;19.60;;;;;;;13.03;100.00;99501.94;5244578;28;20374;-80
2023/10/26 10:27:21;;;;;;;24.13;21.50;;;;;;;12.59;100.00;99495.34;5226908;28;20040;-80
2023/10/26 10:29:56;;;;;;;22.83;19.97;;;;;;;12.72;100.00;99479.31;5219221;28;20410;-80
2023/10/26 10:32:46;;;;;;;23.93;20.30;;;;;;;12.87;100.00;99484.13;5227268;28;20171;-81
2023/10/26 10:35:21;;;;;;;22.07;18.03;;;;;;;12.82;100.00;99474.03;5232162;28;20053;-80
2023/10/26 10:38:11;;;;;;;;;;;;;;;13.34;100.00;99477.22;5231387;28;20091;-79
2023/10/26 10:41:02;;;;;;;18.57;16.50;;;;;;;12.98;100.00;99477.88;5221513;28;19931;-80
2023/10/26 10:43:43;;;;;;;18.90;16.37;;;;;;;13.04;100.00;99486.03;5224938;28;20282;-80
2023/10/26 10:46:16;;;;;;;18.37;16.47;;;;;;;12.83;100.00;99484.41;5229241;28;20037;-80
2023/10/26 10:49:03;;;;;;;17.07;15.37;;;;;;;13.13;100.00;99476.47;5227536;28;20138;-79
2023/10/26 10:51:41;;;;;;;18.30;16.40;;;;;;;12.74;100.00;99476.56;5227475;28;20117;-80
2023/10/26 10:54:20;;;;;;;18.17;15.67;;;;;;;12.85;100.00;99471.13;5229949;28;20458;-80
2023/10/26 10:56:51;;;;;;;19.10;17.13;;;;;;;12.62;100.00;99447.78;5228419;28;20021;-80
2023/10/26 10:59:29;;;;;;;19.73;17.60;;;;;;;12.91;100.00;99443.47;5227408;28;20039;-79
2023/10/26 11:02:12;;;;;;;20.67;17.10;;;;;;;13.15;100.00;99458.75;5223672;28;20026;-79
2023/10/26 11:04:57;;;;;;;18.23;16.33;;;;;;;13.01;100.00;99452.16;5230702;28;20064;-79
2023/10/26 11:07:30;;;;;;;17.03;15.23;;;;;;;12.81;100.00;99465.31;5231495;28;20706;-79
2023/10/26 11:10:02;;;;;;;17.23;15.43;;;;;;;12.86;100.00;99435.19;5228850;28;20052;-79
2023/10/26 11:12:34;;;;;;;17.83;16.03;;;;;;;12.83;100.00;99463.41;5250180;28;20026;-80
2023/10/26 11:15:07;;;;;;;18.00;16.10;;;;;;;12.66;100.00;99461.47;5230152;28;20046;-79
2023/10/26 11:17:39;;;;;;;17.90;16.00;;;;;;;12.71;100.00;99446.13;5223026;28;20064;-79
2023/10/26 11:20:33;;;;;;;18.77;16.87;;;;;;;13.23;100.00;99459.84;5228852;28;20055;-79
2023/10/26 11:23:10;;;;;;;19.60;16.13;;;;;;;13.11;100.00;99438.16;5223474;28;20030;-80
2023/10/26 11:25:41;;;;;;;18.07;16.17;;;;;;;13.13;100.00;99437.03;5230458;28;20770;-80
2023/10/26 11:28:13;;;;;;;19.30;17.30;;;;;;;13.43;100.00;99431.66;5222857;28;20074;-79
2023/10/26 11:30:50;;;;;;;17.70;15.80;;;;;;;13.52;100.00;99428.22;5231917;28;20026;-79
2023/10/26 11:33:37;;;;;;;16.73;15.03;;;;;;;14.06;100.00;99452.94;5230699;28;20029;-79
2023/10/26 11:36:10;;;;;;;17.30;15.60;;;;;;;13.91;100.00;99448.19;5222405;28;20359;-80